sensor_id;sensor_type;location;lat;lon;timestamp;temperature;humidity
56256;DHT22;57229;51.432;-2.598;2024-02-16T00:00:41;11.30;99.90
56256;DHT22;57229;51.432;-2.598;2024-02-16T00:03:10;11.00;99.90
56256;DHT22;57229;51.432;-2.598;2024-02-16T00:05:35;11.00;99.90
56256;DHT22;57229;51.432;-2.598;2024-02-16T00:08:02;12.10;99.90
56256;DHT22;57229;51.432;-2.598;2024-02-16T00:10:28;11.00;99.90
56256;DHT22;57229;51.432;-2.598;2024-02-16T00:12:54;11.00;99.90
56256;DHT22;57229;51.432;-2.598;2024-02-16T00:15:20;11.00;99.90
56256;DHT22;57229;51.432;-2.598;2024-02-16T00:17:45;11.00;99.90
56256;DHT22;57229;51.432;-2.598;2024-02-16T00:20:11;11.00;99.90
56256;DHT22;57229;51.432;-2.598;2024-02-16T00:22:40;11.00;99.90
56256;DHT22;57229;51.432;-2.598;2024-02-16T00:25:06;12.10;99.90
56256;DHT22;57229;51.432;-2.598;2024-02-16T00:27:32;11.00;99.90
56256;DHT22;57229;51.432;-2.598;2024-02-16T00:29:57;11.90;99.90
56256;DHT22;57229;51.432;-2.598;2024-02-16T00:32:36;11.00;99.90
56256;DHT22;57229;51.432;-2.598;2024-02-16T00:35:05;11.00;99.90
56256;DHT22;57229;51.432;-2.598;2024-02-16T00:37:30;11.00;99.90
56256;DHT22;57229;51.432;-2.598;2024-02-16T00:39:56;11.00;99.90
56256;DHT22;57229;51.432;-2.598;2024-02-16T00:42:22;11.00;99.90
56256;DHT22;57229;51.432;-2.598;2024-02-16T00:44:51;11.00;99.90
56256;DHT22;57229;51.432;-2.598;2024-02-16T00:53:41;11.00;99.90
56256;DHT22;57229;51.432;-2.598;2024-02-16T00:56:06;11.00;99.90
56256;DHT22;57229;51.432;-2.598;2024-02-16T00:58:32;11.00;99.90
56256;DHT22;57229;51.432;-2.598;2024-02-16T01:00:58;11.00;99.90
56256;DHT22;57229;51.432;-2.598;2024-02-16T01:03:24;10.90;99.90
56256;DHT22;57229;51.432;-2.598;2024-02-16T01:05:52;10.90;99.90
56256;DHT22;57229;51.432;-2.598;2024-02-16T01:08:17;10.80;99.90
56256;DHT22;57229;51.432;-2.598;2024-02-16T01:10:43;10.80;99.90
56256;DHT22;57229;51.432;-2.598;2024-02-16T01:13:09;10.80;99.90
56256;DHT22;57229;51.432;-2.598;2024-02-16T01:15:35;10.90;99.90
56256;DHT22;57229;51.432;-2.598;2024-02-16T01:18:03;10.80;99.90
56256;DHT22;57229;51.432;-2.598;2024-02-16T01:20:29;10.80;99.90
56256;DHT22;57229;51.432;-2.598;2024-02-16T01:23:16;10.80;99.90
56256;DHT22;57229;51.432;-2.598;2024-02-16T01:25:42;10.90;99.90
56256;DHT22;57229;51.432;-2.598;2024-02-16T01:28:49;10.80;99.90
56256;DHT22;57229;51.432;-2.598;2024-02-16T01:31:14;10.70;99.90
56256;DHT22;57229;51.432;-2.598;2024-02-16T01:33:40;10.70;99.90
56256;DHT22;57229;51.432;-2.598;2024-02-16T01:36:06;11.80;99.90
56256;DHT22;57229;51.432;-2.598;2024-02-16T01:38:31;10.70;99.90
56256;DHT22;57229;51.432;-2.598;2024-02-16T01:40:57;11.70;99.90
56256;DHT22;57229;51.432;-2.598;2024-02-16T01:43:23;10.70;99.90
56256;DHT22;57229;51.432;-2.598;2024-02-16T01:45:49;10.60;99.90
56256;DHT22;57229;51.432;-2.598;2024-02-16T01:48:15;10.60;99.90
56256;DHT22;57229;51.432;-2.598;2024-02-16T01:50:43;10.60;99.90
56256;DHT22;57229;51.432;-2.598;2024-02-16T01:53:11;10.60;99.90
56256;DHT22;57229;51.432;-2.598;2024-02-16T01:55:37;10.60;99.90
56256;DHT22;57229;51.432;-2.598;2024-02-16T01:58:03;11.10;99.90
56256;DHT22;57229;51.432;-2.598;2024-02-16T02:00:30;10.70;99.90
56256;DHT22;57229;51.432;-2.598;2024-02-16T02:02:55;10.70;99.90
56256;DHT22;57229;51.432;-2.598;2024-02-16T02:05:22;10.60;99.90
56256;DHT22;57229;51.432;-2.598;2024-02-16T02:07:48;10.60;99.90
56256;DHT22;57229;51.432;-2.598;2024-02-16T02:10:14;10.60;99.90
56256;DHT22;57229;51.432;-2.598;2024-02-16T02:12:40;10.90;99.90
56256;DHT22;57229;51.432;-2.598;2024-02-16T02:15:08;10.50;99.90
56256;DHT22;57229;51.432;-2.598;2024-02-16T02:17:34;10.50;99.90
56256;DHT22;57229;51.432;-2.598;2024-02-16T02:20:00;10.50;99.90
56256;DHT22;57229;51.432;-2.598;2024-02-16T02:22:25;10.70;99.90
56256;DHT22;57229;51.432;-2.598;2024-02-16T02:24:52;10.60;99.90
56256;DHT22;57229;51.432;-2.598;2024-02-16T02:27:21;10.50;99.90
56256;DHT22;57229;51.432;-2.598;2024-02-16T02:29:47;10.40;99.90
56256;DHT22;57229;51.432;-2.598;2024-02-16T02:32:12;10.30;99.90
56256;DHT22;57229;51.432;-2.598;2024-02-16T02:34:38;10.40;99.90
56256;DHT22;57229;51.432;-2.598;2024-02-16T02:37:05;10.40;99.90
56256;DHT22;57229;51.432;-2.598;2024-02-16T02:39:31;10.40;99.90
56256;DHT22;57229;51.432;-2.598;2024-02-16T02:41:57;10.40;99.90
56256;DHT22;57229;51.432;-2.598;2024-02-16T02:44:23;10.30;99.90
56256;DHT22;57229;51.432;-2.598;2024-02-16T02:46:49;10.40;99.90
56256;DHT22;57229;51.432;-2.598;2024-02-16T02:49:15;10.30;99.90
56256;DHT22;57229;51.432;-2.598;2024-02-16T02:51:52;10.40;99.90
56256;DHT22;57229;51.432;-2.598;2024-02-16T02:54:18;10.30;99.90
56256;DHT22;57229;51.432;-2.598;2024-02-16T02:56:44;11.10;99.90
56256;DHT22;57229;51.432;-2.598;2024-02-16T02:59:10;9.10;99.90
56256;DHT22;57229;51.432;-2.598;2024-02-16T03:01:43;11.00;99.90
56256;DHT22;57229;51.432;-2.598;2024-02-16T03:04:10;10.30;99.90
56256;DHT22;57229;51.432;-2.598;2024-02-16T03:06:36;10.30;99.90
56256;DHT22;57229;51.432;-2.598;2024-02-16T03:09:02;10.30;99.90
56256;DHT22;57229;51.432;-2.598;2024-02-16T03:11:27;10.40;99.90
56256;DHT22;57229;51.432;-2.598;2024-02-16T03:13:53;11.00;99.90
56256;DHT22;57229;51.432;-2.598;2024-02-16T03:16:18;10.30;99.90
56256;DHT22;57229;51.432;-2.598;2024-02-16T03:18:44;11.00;99.90
56256;DHT22;57229;51.432;-2.598;2024-02-16T03:21:13;10.90;99.90
56256;DHT22;57229;51.432;-2.598;2024-02-16T03:23:42;10.20;99.90
56256;DHT22;57229;51.432;-2.598;2024-02-16T03:26:19;10.20;99.90
56256;DHT22;57229;51.432;-2.598;2024-02-16T03:28:46;10.20;99.90
56256;DHT22;57229;51.432;-2.598;2024-02-16T03:31:22;10.50;99.90
56256;DHT22;57229;51.432;-2.598;2024-02-16T03:33:49;10.50;99.90
56256;DHT22;57229;51.432;-2.598;2024-02-16T03:36:16;10.30;99.90
56256;DHT22;57229;51.432;-2.598;2024-02-16T03:38:46;10.20;99.90
56256;DHT22;57229;51.432;-2.598;2024-02-16T03:41:19;10.20;99.90
56256;DHT22;57229;51.432;-2.598;2024-02-16T03:43:45;10.20;99.90
56256;DHT22;57229;51.432;-2.598;2024-02-16T03:46:10;10.20;99.90
56256;DHT22;57229;51.432;-2.598;2024-02-16T03:48:36;10.70;99.90
56256;DHT22;57229;51.432;-2.598;2024-02-16T03:51:02;10.20;99.90
56256;DHT22;57229;51.432;-2.598;2024-02-16T03:53:31;10.10;99.90
56256;DHT22;57229;51.432;-2.598;2024-02-16T03:56:05;9.80;99.90
56256;DHT22;57229;51.432;-2.598;2024-02-16T03:58:31;10.00;99.90
56256;DHT22;57229;51.432;-2.598;2024-02-16T04:00:56;10.40;99.90
56256;DHT22;57229;51.432;-2.598;2024-02-16T04:03:23;9.90;99.90
56256;DHT22;57229;51.432;-2.598;2024-02-16T04:05:49;9.90;99.90
56256;DHT22;57229;51.432;-2.598;2024-02-16T04:08:15;9.80;99.90
56256;DHT22;57229;51.432;-2.598;2024-02-16T04:10:40;9.80;99.90
56256;DHT22;57229;51.432;-2.598;2024-02-16T04:13:06;9.80;99.90
56256;DHT22;57229;51.432;-2.598;2024-02-16T04:15:31;9.80;99.90
56256;DHT22;57229;51.432;-2.598;2024-02-16T04:17:57;9.70;99.90
56256;DHT22;57229;51.432;-2.598;2024-02-16T04:20:23;9.70;99.90
56256;DHT22;57229;51.432;-2.598;2024-02-16T04:22:48;9.60;99.90
56256;DHT22;57229;51.432;-2.598;2024-02-16T04:25:14;9.60;99.90
56256;DHT22;57229;51.432;-2.598;2024-02-16T04:27:39;9.50;99.90
56256;DHT22;57229;51.432;-2.598;2024-02-16T04:30:06;9.50;99.90
56256;DHT22;57229;51.432;-2.598;2024-02-16T04:32:31;9.50;99.90
56256;DHT22;57229;51.432;-2.598;2024-02-16T04:34:58;9.40;99.90
56256;DHT22;57229;51.432;-2.598;2024-02-16T04:37:25;9.40;99.90
56256;DHT22;57229;51.432;-2.598;2024-02-16T04:39:51;9.40;99.90
56256;DHT22;57229;51.432;-2.598;2024-02-16T04:42:17;9.40;99.90
56256;DHT22;57229;51.432;-2.598;2024-02-16T04:44:43;9.40;99.90
56256;DHT22;57229;51.432;-2.598;2024-02-16T04:47:08;9.40;99.90
56256;DHT22;57229;51.432;-2.598;2024-02-16T04:49:37;9.30;99.90
56256;DHT22;57229;51.432;-2.598;2024-02-16T04:52:03;9.30;99.90
56256;DHT22;57229;51.432;-2.598;2024-02-16T04:54:29;9.20;99.90
56256;DHT22;57229;51.432;-2.598;2024-02-16T04:56:55;9.20;99.90
56256;DHT22;57229;51.432;-2.598;2024-02-16T04:59:20;9.20;99.90
56256;DHT22;57229;51.432;-2.598;2024-02-16T05:01:46;9.20;99.90
56256;DHT22;57229;51.432;-2.598;2024-02-16T05:04:13;9.30;99.90
56256;DHT22;57229;51.432;-2.598;2024-02-16T05:06:42;9.60;99.90
56256;DHT22;57229;51.432;-2.598;2024-02-16T05:09:07;9.00;99.90
56256;DHT22;57229;51.432;-2.598;2024-02-16T05:11:33;9.20;99.90
56256;DHT22;57229;51.432;-2.598;2024-02-16T05:13:59;9.20;99.90
56256;DHT22;57229;51.432;-2.598;2024-02-16T05:16:25;9.00;99.90
56256;DHT22;57229;51.432;-2.598;2024-02-16T05:18:52;9.90;99.90
56256;DHT22;57229;51.432;-2.598;2024-02-16T05:21:18;9.00;99.90
56256;DHT22;57229;51.432;-2.598;2024-02-16T05:23:44;8.90;99.90
56256;DHT22;57229;51.432;-2.598;2024-02-16T05:26:09;8.90;99.90
56256;DHT22;57229;51.432;-2.598;2024-02-16T05:28:38;8.90;99.90
56256;DHT22;57229;51.432;-2.598;2024-02-16T05:31:14;9.90;99.90
56256;DHT22;57229;51.432;-2.598;2024-02-16T05:33:41;10.00;99.90
56256;DHT22;57229;51.432;-2.598;2024-02-16T05:36:07;9.20;99.90
56256;DHT22;57229;51.432;-2.598;2024-02-16T05:38:32;8.80;99.90
56256;DHT22;57229;51.432;-2.598;2024-02-16T05:41:00;8.80;99.90
56256;DHT22;57229;51.432;-2.598;2024-02-16T05:43:26;8.80;99.90
56256;DHT22;57229;51.432;-2.598;2024-02-16T05:45:52;8.80;99.90
56256;DHT22;57229;51.432;-2.598;2024-02-16T05:48:18;8.80;99.90
56256;DHT22;57229;51.432;-2.598;2024-02-16T05:50:44;9.00;99.90
56256;DHT22;57229;51.432;-2.598;2024-02-16T05:53:10;8.70;99.90
56256;DHT22;57229;51.432;-2.598;2024-02-16T05:55:36;9.00;99.90
56256;DHT22;57229;51.432;-2.598;2024-02-16T05:58:02;8.70;99.90
56256;DHT22;57229;51.432;-2.598;2024-02-16T06:00:33;8.70;99.90
56256;DHT22;57229;51.432;-2.598;2024-02-16T06:03:00;8.70;99.90
56256;DHT22;57229;51.432;-2.598;2024-02-16T06:05:26;9.20;99.90
56256;DHT22;57229;51.432;-2.598;2024-02-16T06:07:51;8.70;99.90
56256;DHT22;57229;51.432;-2.598;2024-02-16T06:10:17;8.70;99.90
56256;DHT22;57229;51.432;-2.598;2024-02-16T06:12:43;8.90;99.90
56256;DHT22;57229;51.432;-2.598;2024-02-16T06:15:09;9.60;99.90
56256;DHT22;57229;51.432;-2.598;2024-02-16T06:17:35;8.70;99.90
56256;DHT22;57229;51.432;-2.598;2024-02-16T06:20:02;8.70;99.90
56256;DHT22;57229;51.432;-2.598;2024-02-16T06:22:29;8.80;99.90
56256;DHT22;57229;51.432;-2.598;2024-02-16T06:24:57;9.40;99.90
56256;DHT22;57229;51.432;-2.598;2024-02-16T06:27:22;8.90;99.90
56256;DHT22;57229;51.432;-2.598;2024-02-16T06:29:49;8.90;99.90
56256;DHT22;57229;51.432;-2.598;2024-02-16T06:32:15;9.00;99.90
56256;DHT22;57229;51.432;-2.598;2024-02-16T06:34:42;9.40;99.90
56256;DHT22;57229;51.432;-2.598;2024-02-16T06:37:08;9.10;99.90
56256;DHT22;57229;51.432;-2.598;2024-02-16T06:39:34;9.20;99.90
56256;DHT22;57229;51.432;-2.598;2024-02-16T06:41:59;9.10;99.90
56256;DHT22;57229;51.432;-2.598;2024-02-16T06:44:25;9.20;99.90
56256;DHT22;57229;51.432;-2.598;2024-02-16T06:46:51;9.20;99.90
56256;DHT22;57229;51.432;-2.598;2024-02-16T06:49:17;9.30;99.90
56256;DHT22;57229;51.432;-2.598;2024-02-16T06:51:42;9.30;99.90
56256;DHT22;57229;51.432;-2.598;2024-02-16T06:54:10;9.30;99.90
56256;DHT22;57229;51.432;-2.598;2024-02-16T06:56:36;9.30;99.90
56256;DHT22;57229;51.432;-2.598;2024-02-16T06:59:01;9.30;99.90
56256;DHT22;57229;51.432;-2.598;2024-02-16T07:01:27;9.30;99.90
56256;DHT22;57229;51.432;-2.598;2024-02-16T07:03:53;9.40;99.90
56256;DHT22;57229;51.432;-2.598;2024-02-16T07:06:19;9.40;99.90
56256;DHT22;57229;51.432;-2.598;2024-02-16T07:08:44;9.40;99.90
56256;DHT22;57229;51.432;-2.598;2024-02-16T07:11:10;9.40;99.90
56256;DHT22;57229;51.432;-2.598;2024-02-16T07:13:42;9.40;99.90
56256;DHT22;57229;51.432;-2.598;2024-02-16T07:16:08;9.40;99.90
56256;DHT22;57229;51.432;-2.598;2024-02-16T07:18:34;9.40;99.90
56256;DHT22;57229;51.432;-2.598;2024-02-16T07:21:00;9.40;99.90
56256;DHT22;57229;51.432;-2.598;2024-02-16T07:23:26;9.50;99.90
56256;DHT22;57229;51.432;-2.598;2024-02-16T07:25:52;9.40;99.90
56256;DHT22;57229;51.432;-2.598;2024-02-16T07:28:22;10.00;99.90
56256;DHT22;57229;51.432;-2.598;2024-02-16T07:30:49;9.50;99.90
56256;DHT22;57229;51.432;-2.598;2024-02-16T07:33:15;9.50;99.90
56256;DHT22;57229;51.432;-2.598;2024-02-16T07:35:40;9.50;99.90
56256;DHT22;57229;51.432;-2.598;2024-02-16T07:38:06;9.40;99.90
56256;DHT22;57229;51.432;-2.598;2024-02-16T07:40:32;9.40;99.90
56256;DHT22;57229;51.432;-2.598;2024-02-16T07:42:58;9.50;99.90
56256;DHT22;57229;51.432;-2.598;2024-02-16T07:45:24;9.40;99.90
56256;DHT22;57229;51.432;-2.598;2024-02-16T07:47:50;10.30;99.90
56256;DHT22;57229;51.432;-2.598;2024-02-16T07:50:22;11.00;99.90
56256;DHT22;57229;51.432;-2.598;2024-02-16T07:52:49;10.00;99.90
56256;DHT22;57229;51.432;-2.598;2024-02-16T07:55:15;9.50;99.90
56256;DHT22;57229;51.432;-2.598;2024-02-16T07:57:42;9.40;99.90
56256;DHT22;57229;51.432;-2.598;2024-02-16T08:00:08;10.90;99.90
56256;DHT22;57229;51.432;-2.598;2024-02-16T08:02:36;9.50;99.90
56256;DHT22;57229;51.432;-2.598;2024-02-16T08:05:02;9.50;99.90
56256;DHT22;57229;51.432;-2.598;2024-02-16T08:07:27;9.50;99.90
56256;DHT22;57229;51.432;-2.598;2024-02-16T08:09:53;9.50;99.90
56256;DHT22;57229;51.432;-2.598;2024-02-16T08:12:19;9.60;99.90
56256;DHT22;57229;51.432;-2.598;2024-02-16T08:14:44;9.60;99.90
56256;DHT22;57229;51.432;-2.598;2024-02-16T08:17:13;9.60;99.90
56256;DHT22;57229;51.432;-2.598;2024-02-16T08:19:38;9.60;99.90
56256;DHT22;57229;51.432;-2.598;2024-02-16T08:22:06;9.70;99.90
56256;DHT22;57229;51.432;-2.598;2024-02-16T08:24:33;9.70;99.90
56256;DHT22;57229;51.432;-2.598;2024-02-16T08:26:58;9.70;99.90
56256;DHT22;57229;51.432;-2.598;2024-02-16T08:29:24;9.70;99.90
56256;DHT22;57229;51.432;-2.598;2024-02-16T08:31:51;9.70;99.90
56256;DHT22;57229;51.432;-2.598;2024-02-16T08:34:17;9.90;99.90
56256;DHT22;57229;51.432;-2.598;2024-02-16T08:36:49;9.70;99.90
56256;DHT22;57229;51.432;-2.598;2024-02-16T08:39:16;9.70;99.90
56256;DHT22;57229;51.432;-2.598;2024-02-16T08:41:42;9.80;99.90
56256;DHT22;57229;51.432;-2.598;2024-02-16T08:44:14;10.00;99.90
56256;DHT22;57229;51.432;-2.598;2024-02-16T08:46:40;9.80;99.90
56256;DHT22;57229;51.432;-2.598;2024-02-16T08:49:06;9.80;99.90
56256;DHT22;57229;51.432;-2.598;2024-02-16T08:51:32;9.90;99.90
56256;DHT22;57229;51.432;-2.598;2024-02-16T08:53:59;9.90;99.90
56256;DHT22;57229;51.432;-2.598;2024-02-16T08:56:24;10.00;99.90
56256;DHT22;57229;51.432;-2.598;2024-02-16T08:58:50;9.90;99.90
56256;DHT22;57229;51.432;-2.598;2024-02-16T09:01:16;10.00;99.90
56256;DHT22;57229;51.432;-2.598;2024-02-16T09:03:42;10.10;99.90
56256;DHT22;57229;51.432;-2.598;2024-02-16T09:06:08;10.20;99.90
56256;DHT22;57229;51.432;-2.598;2024-02-16T09:08:34;10.30;99.90
56256;DHT22;57229;51.432;-2.598;2024-02-16T09:11:05;10.40;99.90
56256;DHT22;57229;51.432;-2.598;2024-02-16T09:13:34;10.60;99.90
56256;DHT22;57229;51.432;-2.598;2024-02-16T09:16:01;10.50;99.90
56256;DHT22;57229;51.432;-2.598;2024-02-16T09:18:27;10.60;99.90
56256;DHT22;57229;51.432;-2.598;2024-02-16T09:20:52;10.70;99.90
56256;DHT22;57229;51.432;-2.598;2024-02-16T09:23:18;10.70;99.90
56256;DHT22;57229;51.432;-2.598;2024-02-16T09:25:44;10.80;99.90
56256;DHT22;57229;51.432;-2.598;2024-02-16T09:28:11;11.70;99.90
56256;DHT22;57229;51.432;-2.598;2024-02-16T09:30:38;11.00;99.90
56256;DHT22;57229;51.432;-2.598;2024-02-16T09:33:03;11.00;99.90
56256;DHT22;57229;51.432;-2.598;2024-02-16T09:35:29;11.00;99.90
56256;DHT22;57229;51.432;-2.598;2024-02-16T09:37:55;11.20;99.90
56256;DHT22;57229;51.432;-2.598;2024-02-16T09:40:21;11.30;99.90
56256;DHT22;57229;51.432;-2.598;2024-02-16T09:42:50;11.60;99.90
56256;DHT22;57229;51.432;-2.598;2024-02-16T09:45:16;11.60;99.90
56256;DHT22;57229;51.432;-2.598;2024-02-16T09:47:45;11.80;99.90
56256;DHT22;57229;51.432;-2.598;2024-02-16T09:50:12;12.00;99.90
56256;DHT22;57229;51.432;-2.598;2024-02-16T09:52:39;12.00;99.90
56256;DHT22;57229;51.432;-2.598;2024-02-16T09:55:08;12.00;99.90
56256;DHT22;57229;51.432;-2.598;2024-02-16T09:57:35;12.00;99.90
56256;DHT22;57229;51.432;-2.598;2024-02-16T10:00:02;12.30;99.90
56256;DHT22;57229;51.432;-2.598;2024-02-16T10:02:42;12.60;99.90
56256;DHT22;57229;51.432;-2.598;2024-02-16T10:07:41;12.70;99.90
56256;DHT22;57229;51.432;-2.598;2024-02-16T10:10:07;13.30;99.90
56256;DHT22;57229;51.432;-2.598;2024-02-16T10:12:44;13.70;99.90
56256;DHT22;57229;51.432;-2.598;2024-02-16T10:15:11;13.40;99.90
56256;DHT22;57229;51.432;-2.598;2024-02-16T10:17:36;12.90;99.90
56256;DHT22;57229;51.432;-2.598;2024-02-16T10:20:03;12.60;99.90
56256;DHT22;57229;51.432;-2.598;2024-02-16T10:22:32;12.60;99.90
56256;DHT22;57229;51.432;-2.598;2024-02-16T10:25:07;12.60;99.90
56256;DHT22;57229;51.432;-2.598;2024-02-16T10:27:37;12.90;99.90
56256;DHT22;57229;51.432;-2.598;2024-02-16T10:30:06;13.70;99.90
56256;DHT22;57229;51.432;-2.598;2024-02-16T10:32:38;14.30;99.90
56256;DHT22;57229;51.432;-2.598;2024-02-16T10:35:05;14.40;99.90
56256;DHT22;57229;51.432;-2.598;2024-02-16T10:37:32;14.50;99.90
56256;DHT22;57229;51.432;-2.598;2024-02-16T10:39:59;14.40;99.90
56256;DHT22;57229;51.432;-2.598;2024-02-16T10:42:29;14.30;99.90
56256;DHT22;57229;51.432;-2.598;2024-02-16T10:44:55;14.90;99.90
56256;DHT22;57229;51.432;-2.598;2024-02-16T10:47:21;16.10;99.90
56256;DHT22;57229;51.432;-2.598;2024-02-16T10:49:47;16.50;99.90
56256;DHT22;57229;51.432;-2.598;2024-02-16T10:52:14;16.70;99.90
56256;DHT22;57229;51.432;-2.598;2024-02-16T10:54:40;15.40;99.90
56256;DHT22;57229;51.432;-2.598;2024-02-16T10:57:08;16.00;99.90
56256;DHT22;57229;51.432;-2.598;2024-02-16T10:59:44;16.50;99.90
56256;DHT22;57229;51.432;-2.598;2024-02-16T11:02:11;16.50;99.90
56256;DHT22;57229;51.432;-2.598;2024-02-16T11:04:38;15.70;99.90
56256;DHT22;57229;51.432;-2.598;2024-02-16T11:07:11;14.70;99.90
56256;DHT22;57229;51.432;-2.598;2024-02-16T11:09:39;14.10;99.90
56256;DHT22;57229;51.432;-2.598;2024-02-16T11:12:06;13.70;99.90
56256;DHT22;57229;51.432;-2.598;2024-02-16T11:14:47;13.50;99.90
56256;DHT22;57229;51.432;-2.598;2024-02-16T11:17:22;13.40;99.90
56256;DHT22;57229;51.432;-2.598;2024-02-16T11:19:48;13.80;99.90
56256;DHT22;57229;51.432;-2.598;2024-02-16T11:22:20;13.80;99.90
56256;DHT22;57229;51.432;-2.598;2024-02-16T11:24:50;13.40;99.90
56256;DHT22;57229;51.432;-2.598;2024-02-16T11:27:18;14.20;99.90
56256;DHT22;57229;51.432;-2.598;2024-02-16T11:29:48;15.20;99.90
56256;DHT22;57229;51.432;-2.598;2024-02-16T11:32:14;15.60;99.90
56256;DHT22;57229;51.432;-2.598;2024-02-16T11:34:40;14.90;99.90
56256;DHT22;57229;51.432;-2.598;2024-02-16T11:37:05;14.60;99.90
56256;DHT22;57229;51.432;-2.598;2024-02-16T11:39:31;14.50;99.90
56256;DHT22;57229;51.432;-2.598;2024-02-16T11:44:34;13.80;99.90
56256;DHT22;57229;51.432;-2.598;2024-02-16T11:47:01;13.60;99.90
56256;DHT22;57229;51.432;-2.598;2024-02-16T11:49:29;13.20;99.90
56256;DHT22;57229;51.432;-2.598;2024-02-16T11:51:56;13.10;99.90
56256;DHT22;57229;51.432;-2.598;2024-02-16T11:54:22;13.10;99.90
56256;DHT22;57229;51.432;-2.598;2024-02-16T11:56:48;13.20;99.90
56256;DHT22;57229;51.432;-2.598;2024-02-16T11:59:18;13.20;99.90
56256;DHT22;57229;51.432;-2.598;2024-02-16T12:01:55;13.20;99.90
56256;DHT22;57229;51.432;-2.598;2024-02-16T12:07:00;13.50;99.90
56256;DHT22;57229;51.432;-2.598;2024-02-16T12:09:26;13.70;99.90
56256;DHT22;57229;51.432;-2.598;2024-02-16T12:11:53;13.80;99.90
56256;DHT22;57229;51.432;-2.598;2024-02-16T12:14:21;13.90;99.90
56256;DHT22;57229;51.432;-2.598;2024-02-16T12:16:50;13.70;99.90
56256;DHT22;57229;51.432;-2.598;2024-02-16T12:19:19;13.40;99.90
56256;DHT22;57229;51.432;-2.598;2024-02-16T12:21:51;13.00;99.90
56256;DHT22;57229;51.432;-2.598;2024-02-16T12:24:18;12.80;99.90
56256;DHT22;57229;51.432;-2.598;2024-02-16T12:26:44;12.70;99.90
56256;DHT22;57229;51.432;-2.598;2024-02-16T12:29:09;12.70;99.90
56256;DHT22;57229;51.432;-2.598;2024-02-16T12:31:42;12.80;99.90
56256;DHT22;57229;51.432;-2.598;2024-02-16T12:34:08;12.90;99.90
56256;DHT22;57229;51.432;-2.598;2024-02-16T12:36:34;12.90;99.90
56256;DHT22;57229;51.432;-2.598;2024-02-16T12:39:01;12.80;99.90
56256;DHT22;57229;51.432;-2.598;2024-02-16T12:41:28;12.90;99.90
56256;DHT22;57229;51.432;-2.598;2024-02-16T12:43:54;13.10;99.90
56256;DHT22;57229;51.432;-2.598;2024-02-16T12:46:20;13.30;99.90
56256;DHT22;57229;51.432;-2.598;2024-02-16T12:48:45;13.50;99.90
56256;DHT22;57229;51.432;-2.598;2024-02-16T12:51:11;14.20;99.90
56256;DHT22;57229;51.432;-2.598;2024-02-16T12:53:37;14.80;99.90
56256;DHT22;57229;51.432;-2.598;2024-02-16T12:56:09;14.90;99.90
56256;DHT22;57229;51.432;-2.598;2024-02-16T12:58:38;14.90;99.90
56256;DHT22;57229;51.432;-2.598;2024-02-16T13:01:05;14.50;99.90
56256;DHT22;57229;51.432;-2.598;2024-02-16T13:03:35;14.00;99.90
56256;DHT22;57229;51.432;-2.598;2024-02-16T13:06:01;13.40;99.90
56256;DHT22;57229;51.432;-2.598;2024-02-16T13:08:27;13.00;99.90
56256;DHT22;57229;51.432;-2.598;2024-02-16T13:10:53;12.90;99.90
56256;DHT22;57229;51.432;-2.598;2024-02-16T13:13:19;12.80;99.90
56256;DHT22;57229;51.432;-2.598;2024-02-16T13:15:46;12.70;99.90
56256;DHT22;57229;51.432;-2.598;2024-02-16T13:18:13;12.60;99.90
56256;DHT22;57229;51.432;-2.598;2024-02-16T13:20:38;12.50;99.90
56256;DHT22;57229;51.432;-2.598;2024-02-16T13:23:04;12.50;99.90
56256;DHT22;57229;51.432;-2.598;2024-02-16T13:25:30;12.60;99.90
56256;DHT22;57229;51.432;-2.598;2024-02-16T13:28:08;12.60;99.90
56256;DHT22;57229;51.432;-2.598;2024-02-16T13:30:33;12.70;99.90
56256;DHT22;57229;51.432;-2.598;2024-02-16T13:32:59;12.90;99.90
56256;DHT22;57229;51.432;-2.598;2024-02-16T13:35:25;13.10;99.90
56256;DHT22;57229;51.432;-2.598;2024-02-16T13:37:54;13.20;99.90
56256;DHT22;57229;51.432;-2.598;2024-02-16T13:40:19;13.20;99.90
56256;DHT22;57229;51.432;-2.598;2024-02-16T13:42:46;12.60;99.90
56256;DHT22;57229;51.432;-2.598;2024-02-16T13:45:13;12.90;99.90
56256;DHT22;57229;51.432;-2.598;2024-02-16T13:47:38;12.80;99.90
56256;DHT22;57229;51.432;-2.598;2024-02-16T13:50:07;12.70;99.90
56256;DHT22;57229;51.432;-2.598;2024-02-16T13:52:34;12.60;99.90
56256;DHT22;57229;51.432;-2.598;2024-02-16T13:55:00;12.70;99.90
56256;DHT22;57229;51.432;-2.598;2024-02-16T13:57:26;13.10;99.90
56256;DHT22;57229;51.432;-2.598;2024-02-16T13:59:51;13.60;99.90
56256;DHT22;57229;51.432;-2.598;2024-02-16T14:02:17;13.70;99.90
56256;DHT22;57229;51.432;-2.598;2024-02-16T14:04:43;13.70;99.90
56256;DHT22;57229;51.432;-2.598;2024-02-16T14:07:09;13.60;99.90
56256;DHT22;57229;51.432;-2.598;2024-02-16T14:09:35;13.40;99.90
56256;DHT22;57229;51.432;-2.598;2024-02-16T14:12:01;13.00;99.90
56256;DHT22;57229;51.432;-2.598;2024-02-16T14:14:26;12.80;99.90
56256;DHT22;57229;51.432;-2.598;2024-02-16T14:16:52;12.60;99.90
56256;DHT22;57229;51.432;-2.598;2024-02-16T14:19:18;12.50;99.90
56256;DHT22;57229;51.432;-2.598;2024-02-16T14:21:44;12.40;99.90
56256;DHT22;57229;51.432;-2.598;2024-02-16T14:24:09;12.20;99.90
56256;DHT22;57229;51.432;-2.598;2024-02-16T14:26:38;12.10;99.90
56256;DHT22;57229;51.432;-2.598;2024-02-16T14:29:04;12.00;99.90
56256;DHT22;57229;51.432;-2.598;2024-02-16T14:31:30;12.10;99.90
56256;DHT22;57229;51.432;-2.598;2024-02-16T14:33:56;12.10;99.90
56256;DHT22;57229;51.432;-2.598;2024-02-16T14:36:21;12.20;99.90
56256;DHT22;57229;51.432;-2.598;2024-02-16T14:38:47;12.40;99.90
56256;DHT22;57229;51.432;-2.598;2024-02-16T14:41:18;12.40;99.90
56256;DHT22;57229;51.432;-2.598;2024-02-16T14:43:44;13.40;99.90
56256;DHT22;57229;51.432;-2.598;2024-02-16T14:46:10;12.70;99.90
56256;DHT22;57229;51.432;-2.598;2024-02-16T14:48:36;12.80;99.90
56256;DHT22;57229;51.432;-2.598;2024-02-16T14:51:04;12.80;99.90
56256;DHT22;57229;51.432;-2.598;2024-02-16T14:53:30;12.70;99.90
56256;DHT22;57229;51.432;-2.598;2024-02-16T14:56:01;12.70;99.90
56256;DHT22;57229;51.432;-2.598;2024-02-16T14:58:28;12.60;99.90
56256;DHT22;57229;51.432;-2.598;2024-02-16T15:00:54;12.50;99.90
56256;DHT22;57229;51.432;-2.598;2024-02-16T15:03:22;12.30;99.90
56256;DHT22;57229;51.432;-2.598;2024-02-16T15:05:47;12.30;99.90
56256;DHT22;57229;51.432;-2.598;2024-02-16T15:08:13;12.40;99.90
56256;DHT22;57229;51.432;-2.598;2024-02-16T15:10:39;12.20;99.90
56256;DHT22;57229;51.432;-2.598;2024-02-16T15:13:05;12.20;99.90
56256;DHT22;57229;51.432;-2.598;2024-02-16T15:15:30;12.10;99.90
56256;DHT22;57229;51.432;-2.598;2024-02-16T15:18:00;12.10;99.90
56256;DHT22;57229;51.432;-2.598;2024-02-16T15:20:27;12.00;99.90
56256;DHT22;57229;51.432;-2.598;2024-02-16T15:22:53;12.00;99.90
56256;DHT22;57229;51.432;-2.598;2024-02-16T15:25:20;11.90;99.90
56256;DHT22;57229;51.432;-2.598;2024-02-16T15:27:47;11.90;99.90
56256;DHT22;57229;51.432;-2.598;2024-02-16T15:30:14;11.90;99.90
56256;DHT22;57229;51.432;-2.598;2024-02-16T15:32:43;12.00;99.90